Time;durP1;ratioP1;P1;durP2;ratioP2;P2;SDS_P1;SDS_P2;PMS_P1;PMS_P2;Temp;Humidity;BMP_temperature;BMP_pressure;BME280_temperature;BME280_humidity;BME280_pressure;Samples;Min_cycle;Max_cycle;Signal;HPM_P1;HPM_P2
2022/06/10 00:00:56;;;;;;;;;;;;;;;23.59;58.70;98605.41;4498547;31;33431;-87
2022/06/10 00:03:25;;;;;;;;;;;;;;;23.26;59.43;98612.25;4498382;31;33982;-88
2022/06/10 00:05:53;;;;;;;;;;;;;;;22.56;61.88;98610.19;4498782;31;34213;-87
2022/06/10 00:08:22;;;;;;;;;;;;;;;21.56;64.99;98609.16;4492798;31;34167;-86
2022/06/10 00:10:49;;;;;;;;;;;;;;;22.02;63.47;98614.28;4494032;31;33392;-87
2022/06/10 00:13:17;;;;;;;;;;;;;;;22.40;62.30;98615.31;4498985;31;35140;-89
2022/06/10 00:15:44;;;;;;;;;;;;;;;22.40;62.03;98622.37;4501981;31;34189;-85
2022/06/10 00:18:14;;;;;;;;;;;;;;;21.74;64.38;98623.34;4498892;31;34292;-88
2022/06/10 00:20:42;;;;;;;;;;;;;;;22.13;63.04;98619.97;4499060;31;33170;-84
2022/06/10 00:23:09;;;;;;;;;;;;;;;22.36;61.85;98619.00;4487563;31;33826;-90
2022/06/10 00:25:37;;;;;;;;;;;;;;;21.81;63.82;98619.53;4503305;31;35355;-88
2022/06/10 00:28:05;;;;;;;;;;;;;;;23.22;59.34;98623.91;4498779;31;34258;-85
2022/06/10 00:30:32;;;;;;;;;;;;;;;21.93;63.46;98628.72;4498948;31;33232;-87
2022/06/10 00:33:00;;;;;;;;;;;;;;;21.91;63.73;98629.72;4498109;31;34465;-88
2022/06/10 00:35:28;;;;;;;;;;;;;;;22.54;61.01;98625.25;4506243;31;33943;-83
2022/06/10 00:37:55;;;;;;;;;;;;;;;22.94;60.25;98628.75;4499356;31;33791;-87
2022/06/10 00:40:25;;;;;;;;;;;;;;;22.29;62.30;98631.63;4498655;31;33139;-84
2022/06/10 00:42:54;;;;;;;;;;;;;;;22.21;62.12;98633.72;4498591;31;34390;-86
2022/06/10 00:45:40;;;;;;;;;;;;;;;22.31;62.07;98628.91;4498741;31;34059;-85
2022/06/10 00:48:08;;;;;;;;;;;;;;;23.11;59.60;98630.59;4485375;31;34017;-90
2022/06/10 00:50:36;;;;;;;;;;;;;;;21.95;62.98;98647.16;4496964;31;33746;-82
2022/06/10 00:53:04;;;;;;;;;;;;;;;21.72;63.85;98646.31;4498823;31;34061;-88
2022/06/10 00:55:31;;;;;;;;;;;;;;;22.25;62.15;98635.31;4499111;31;34447;-86
2022/06/10 00:58:04;;;;;;;;;;;;;;;22.09;62.54;98635.09;4484903;31;34070;-85
2022/06/10 01:00:32;;;;;;;;;;;;;;;22.41;61.78;98639.94;4496732;31;34075;-84
2022/06/10 01:02:59;;;;;;;;;;;;;;;23.36;58.81;98641.75;4490077;31;33784;-85
2022/06/10 01:05:27;;;;;;;;;;;;;;;23.23;58.98;98638.84;4498310;31;35881;-87
2022/06/10 01:08:00;;;;;;;;;;;;;;;23.15;58.64;98632.22;4485667;31;34043;-87
2022/06/10 01:10:27;;;;;;;;;;;;;;;;;;4494161;31;34373;-82
2022/06/10 01:13:13;;;;;;;;;;;;;;;21.82;62.73;98642.38;4505892;31;33690;-84
2022/06/10 01:15:57;;;;;;;;;;;;;;;21.49;64.26;98646.38;4499267;31;34311;-87
2022/06/10 01:18:48;;;;;;;;;;;;;;;21.94;63.20;98643.66;4487104;31;34256;-84
2022/06/10 01:21:15;;;;;;;;;;;;;;;21.12;65.53;98647.78;4464011;31;34275;-84
2022/06/10 01:23:45;;;;;;;;;;;;;;;21.47;64.49;98650.84;4509165;31;33555;-86
2022/06/10 01:26:32;;;;;;;;;;;;;;;22.08;62.59;98645.69;4496794;31;34106;-86
2022/06/10 01:29:18;;;;;;;;;;;;;;;21.18;65.71;98655.47;4498036;31;34933;-83
2022/06/10 01:31:48;;;;;;;;;;;;;;;21.13;65.48;98652.97;4497013;31;33468;-91
2022/06/10 01:34:26;;;;;;;;;;;;;;;21.12;65.60;98653.91;4490676;31;35101;-85
2022/06/10 01:36:54;;;;;;;;;;;;;;;21.30;65.40;98659.41;4491178;31;35279;-89
2022/06/10 01:39:31;;;;;;;;;;;;;;;21.91;62.91;98658.75;4495081;31;34712;-86
2022/06/10 01:42:10;;;;;;;;;;;;;;;22.01;62.48;98660.06;4500913;31;34137;-87
2022/06/10 01:44:41;;;;;;;;;;;;;;;22.33;61.34;98654.31;4487366;31;34247;-84
2022/06/10 01:47:19;;;;;;;;;;;;;;;21.83;63.09;98661.72;4499548;31;34146;-83
2022/06/10 01:49:58;;;;;;;;;;;;;;;21.96;62.42;98662.06;4485426;31;34200;-85
2022/06/10 01:52:32;;;;;;;;;;;;;;;21.34;64.95;98667.16;4500357;31;33335;-86
2022/06/10 01:55:04;;;;;;;;;;;;;;;21.34;64.40;98677.72;4498180;31;35023;-86
2022/06/10 01:57:40;;;;;;;;;;;;;;;21.99;62.69;98669.84;4499492;31;34380;-91
2022/06/10 02:00:10;;;;;;;;;;;;;;;21.00;65.99;98678.09;4484045;31;34196;-86
2022/06/10 02:02:39;;;;;;;;;;;;;;;21.13;65.51;98674.06;4493628;31;33374;-85
2022/06/10 02:05:16;;;;;;;;;;;;;;;21.19;65.09;98675.63;4484329;32;34246;-85
2022/06/10 02:07:45;;;;;;;;;;;;;;;21.92;63.10;98697.41;4484399;31;34182;-87
2022/06/10 02:10:15;;;;;;;;;;;;;;;21.20;65.22;98706.34;4498045;31;33652;-89
2022/06/10 02:12:43;;;;;;;;;;;;;;;21.10;65.72;98720.75;4497806;31;34249;-88
2022/06/10 02:15:18;;;;;;;;;;;;;;;21.14;65.58;98717.12;4498053;31;34963;-89
2022/06/10 02:17:50;;;;;;;;;;;;;;;21.54;64.47;98723.53;4498419;31;34416;-85
2022/06/10 02:20:19;;;;;;;;;;;;;;;21.48;64.80;98723.75;4493265;31;34050;-88
2022/06/10 02:22:46;;;;;;;;;;;;;;;22.03;62.78;98724.22;4497924;31;33422;-89
2022/06/10 02:25:27;;;;;;;;;;;;;;;22.33;61.53;98722.97;4498451;31;34213;-88
2022/06/10 02:28:00;;;;;;;;;;;;;;;22.29;61.61;98731.97;4491522;31;35372;-85
2022/06/10 02:30:27;;;;;;;;;;;;;;;22.25;61.99;98734.81;4494723;31;34145;-88
2022/06/10 02:32:56;;;;;;;;;;;;;;;22.90;59.90;98756.69;4502233;31;33586;-86
2022/06/10 02:35:25;;;;;;;;;;;;;;;23.21;58.50;98766.78;4498156;31;34015;-86
2022/06/10 02:37:59;;;;;;;;;;;;;;;22.79;59.72;98783.56;4493815;31;35317;-85
2022/06/10 02:40:26;;;;;;;;;;;;;;;;;;4496513;31;33642;-86
2022/06/10 02:42:59;;;;;;;;;;;;;;;23.02;59.12;98772.03;4499444;31;33377;-87
2022/06/10 02:45:45;;;;;;;;;;;;;;;21.72;63.39;98766.81;4493703;31;33847;-91
2022/06/10 02:48:13;;;;;;;;;;;;;;;21.68;63.91;98766.06;4484029;32;34483;-86
2022/06/10 02:50:40;;;;;;;;;;;;;;;21.79;63.66;98760.38;4498475;31;35022;-88
2022/06/10 02:53:08;;;;;;;;;;;;;;;21.61;64.08;98760.16;4514539;31;33502;-89
2022/06/10 02:55:35;;;;;;;;;;;;;;;22.70;60.56;98768.97;4514309;31;34347;-87
2022/06/10 03:03:35;;;;;;;;;;;;;;;23.10;59.12;98780.47;4499703;31;33307;-87
2022/06/10 03:06:21;;;;;;;;;;;;;;;23.04;59.14;98792.19;4499668;31;34087;-93
2022/06/10 03:08:51;;;;;;;;;;;;;;;22.63;60.33;98783.38;4513229;31;35173;-86
2022/06/10 03:11:24;;;;;;;;;;;;;;;21.94;62.78;98766.84;4497310;31;34106;-88
2022/06/10 03:13:56;;;;;;;;;;;;;;;22.02;62.91;98770.88;4483705;32;33517;-87
2022/06/10 03:16:36;;;;;;;;;;;;;;;22.54;61.13;98774.06;4488006;31;34003;-85
2022/06/10 03:19:06;;;;;;;;;;;;;;;23.29;58.31;98768.13;4499522;31;34309;-86
2022/06/10 03:21:52;;;;;;;;;;;;;;;22.24;61.78;98770.06;4498232;31;34911;-88
2022/06/10 03:24:25;;;;;;;;;;;;;;;22.52;61.13;98781.19;4507473;31;34271;-87
2022/06/10 03:27:11;;;;;;;;;;;;;;;22.88;60.08;98784.94;4515021;31;34111;-88
2022/06/10 03:29:52;;;;;;;;;;;;;;;23.26;58.15;98784.19;4503787;31;34217;-85
2022/06/10 03:32:35;;;;;;;;;;;;;;;23.63;57.59;98786.91;4498019;31;34268;-88
2022/06/10 03:35:10;;;;;;;;;;;;;;;23.36;58.33;98786.38;4495620;31;34160;-86
2022/06/10 03:37:38;;;;;;;;;;;;;;;22.25;61.26;98792.91;4498143;31;34246;-87
2022/06/10 03:40:05;;;;;;;;;;;;;;;23.05;58.66;98793.91;4499177;31;35427;-85
2022/06/10 03:42:32;;;;;;;;;;;;;;;23.01;58.81;98788.81;4499295;31;34156;-84
2022/06/10 03:45:00;;;;;;;;;;;;;;;22.37;61.42;98787.09;4488296;31;32967;-88
2022/06/10 03:47:29;;;;;;;;;;;;;;;21.60;63.62;98795.41;4499164;31;34145;-85
2022/06/10 03:50:02;;;;;;;;;;;;;;;23.16;59.27;98803.16;4497697;31;34112;-85
2022/06/10 03:52:30;;;;;;;;;;;;;;;23.26;59.09;98799.16;4497833;31;34055;-87
2022/06/10 03:54:57;;;;;;;;;;;;;;;22.83;59.68;98801.88;4495246;31;34332;-85
2022/06/10 03:57:25;;;;;;;;;;;;;;;22.57;61.53;98794.19;4514662;31;33907;-87
2022/06/10 03:59:52;;;;;;;;;;;;;;;23.30;59.31;98793.69;4515085;31;33991;-85
2022/06/10 04:02:19;;;;;;;;;;;;;;;22.59;60.82;98800.28;4515196;31;34317;-91
2022/06/10 04:04:51;;;;;;;;;;;;;;;23.49;57.90;98800.78;4499331;31;33423;-87
2022/06/10 04:07:19;;;;;;;;;;;;;;;22.49;60.69;98805.06;4481911;31;33973;-86
2022/06/10 04:09:46;;;;;;;;;;;;;;;23.82;56.73;98800.16;4481902;32;34395;-87
2022/06/10 04:12:15;;;;;;;;;;;;;;;23.26;59.07;98812.37;4485791;31;33784;-87
2022/06/10 04:14:43;;;;;;;;;;;;;;;23.53;57.87;98813.81;4482244;31;33399;-87
2022/06/10 04:17:10;;;;;;;;;;;;;;;23.95;56.89;98819.84;4497505;31;35104;-85
2022/06/10 04:19:37;;;;;;;;;;;;;;;24.28;54.99;98812.06;4497619;31;34376;-84
2022/06/10 04:22:05;;;;;;;;;;;;;;;23.87;56.55;98806.13;4498847;31;34035;-84
2022/06/10 04:24:32;;;;;;;;;;;;;;;22.47;60.70;98819.28;4497466;31;33056;-83
2022/06/10 04:26:59;;;;;;;;;;;;;;;23.98;56.36;98814.38;4497397;31;33935;-88
2022/06/10 04:29:27;;;;;;;;;;;;;;;23.21;58.36;98817.03;4498627;31;35390;-85
2022/06/10 04:31:54;;;;;;;;;;;;;;;24.00;56.03;98820.50;4504248;31;34199;-85
2022/06/10 04:34:21;;;;;;;;;;;;;;;23.59;57.31;98823.22;4514748;31;33022;-85
2022/06/10 04:36:49;;;;;;;;;;;;;;;23.74;56.82;98827.84;4498254;31;33606;-86
2022/06/10 04:39:16;;;;;;;;;;;;;;;22.83;59.82;98824.81;4498776;31;33580;-84
2022/06/10 04:41:43;;;;;;;;;;;;;;;22.90;59.73;98828.06;4498834;31;33727;-83
2022/06/10 04:44:10;;;;;;;;;;;;;;;22.10;61.68;98834.78;4498680;31;33356;-82
2022/06/10 04:46:44;;;;;;;;;;;;;;;22.36;61.16;98840.00;4498548;31;34945;-84
2022/06/10 04:49:12;;;;;;;;;;;;;;;22.53;60.56;98840.16;4498408;31;34849;-86
2022/06/10 04:51:39;;;;;;;;;;;;;;;22.77;60.35;98839.16;4493628;31;34950;-84
2022/06/10 04:54:07;;;;;;;;;;;;;;;23.37;59.02;98830.41;4482726;32;33430;-81
2022/06/10 04:56:34;;;;;;;;;;;;;;;23.96;56.71;98840.09;4496890;31;34045;-85
2022/06/10 04:59:01;;;;;;;;;;;;;;;23.75;57.44;98840.19;4509967;31;34015;-85
2022/06/10 05:01:28;;;;;;;;;;;;;;;22.42;61.24;98842.37;4484960;31;33917;-84
2022/06/10 05:03:56;;;;;;;;;;;;;;;22.80;60.66;98851.34;4493499;31;33790;-85
2022/06/10 05:06:25;;;;;;;;;;;;;;;23.65;57.98;98854.72;4498279;31;34355;-85
2022/06/10 05:08:53;;;;;;;;;;;;;;;23.06;59.48;98852.94;4509420;31;34108;-86
2022/06/10 05:11:20;;;;;;;;;;;;;;;23.70;57.52;98847.44;4507975;31;33851;-87
2022/06/10 05:13:47;;;;;;;;;;;;;;;23.52;58.48;98854.44;4504664;31;33732;-85
2022/06/10 05:16:21;;;;;;;;;;;;;;;23.58;57.53;98850.63;4499699;31;34408;-82
2022/06/10 05:18:48;;;;;;;;;;;;;;;23.44;57.78;98850.37;4499788;31;35738;-82
2022/06/10 05:21:15;;;;;;;;;;;;;;;23.68;58.25;98853.75;4499404;31;33585;-82
2022/06/10 05:23:45;;;;;;;;;;;;;;;24.16;56.29;98855.03;4500175;31;33895;-82
2022/06/10 05:26:13;;;;;;;;;;;;;;;23.85;57.98;98867.06;4510007;31;34243;-84
2022/06/10 05:28:40;;;;;;;;;;;;;;;24.44;55.45;98862.56;4500269;31;35726;-83
2022/06/10 05:31:08;;;;;;;;;;;;;;;23.22;58.74;98866.34;4497973;31;34026;-81
2022/06/10 05:36:21;;;;;;;;;;;;;;;24.54;55.84;98873.56;4514770;31;35108;-82
2022/06/10 05:38:49;;;;;;;;;;;;;;;24.55;54.97;98873.50;4515480;31;34385;-82
2022/06/10 05:44:03;;;;;;;;;;;;;;;24.70;54.17;98893.94;4504362;31;33115;-81
2022/06/10 05:46:31;;;;;;;;;;;;;;;24.47;55.38;98889.78;4500148;31;34253;-82
2022/06/10 05:48:58;;;;;;;;;;;;;;;24.75;55.19;98897.22;4500225;31;34556;-82
2022/06/10 05:51:25;;;;;;;;;;;;;;;24.44;56.26;98886.41;4502280;31;34847;-82
2022/06/10 05:53:52;;;;;;;;;;;;;;;24.03;57.59;98899.78;4500753;31;33467;-83
2022/06/10 05:56:20;;;;;;;;;;;;;;;23.53;58.95;98887.03;4499728;31;34152;-81
2022/06/10 05:58:48;;;;;;;;;;;;;;;24.20;57.15;98891.91;4500535;31;35352;-84
2022/06/10 06:01:15;;;;;;;;;;;;;;;24.96;55.20;98899.72;4500412;31;34306;-86
2022/06/10 06:03:42;;;;;;;;;;;;;;;25.33;54.65;98914.66;4508541;31;34803;-82
2022/06/10 06:06:11;;;;;;;;;;;;;;;25.67;53.16;98907.59;4503507;31;34674;-84
2022/06/10 06:08:38;;;;;;;;;;;;;;;25.31;54.68;98910.41;4501702;31;34484;-83
2022/06/10 06:11:05;;;;;;;;;;;;;;;24.48;55.66;98918.00;4499849;31;34242;-80
2022/06/10 06:13:33;;;;;;;;;;;;;;;24.30;57.15;98920.63;4499789;31;34228;-81
2022/06/10 06:16:00;;;;;;;;;;;;;;;25.23;54.37;98922.25;4499962;31;34759;-85
2022/06/10 06:18:27;;;;;;;;;;;;;;;25.00;55.01;98922.50;4499710;31;33767;-83
2022/06/10 06:20:55;;;;;;;;;;;;;;;25.62;54.31;98922.94;4499026;31;35089;-81
2022/06/10 06:23:23;;;;;;;;;;;;;;;25.31;54.15;98926.31;4499798;31;34080;-82
2022/06/10 06:25:51;;;;;;;;;;;;;;;24.75;55.56;98923.72;4499836;31;34353;-83
2022/06/10 06:28:18;;;;;;;;;;;;;;;25.38;53.96;98927.69;4499759;31;35239;-81
2022/06/10 06:30:45;;;;;;;;;;;;;;;25.33;54.77;98925.28;4500012;31;34239;-83
2022/06/10 06:33:12;;;;;;;;;;;;;;;24.66;54.97;98929.50;4499546;31;34188;-84
2022/06/10 06:35:40;;;;;;;;;;;;;;;24.79;55.93;98928.91;4505146;31;34405;-84
2022/06/10 06:38:07;;;;;;;;;;;;;;;25.60;53.72;98932.75;4491718;31;34452;-85
2022/06/10 06:40:35;;;;;;;;;;;;;;;25.80;52.36;98935.25;4507312;31;34300;-83
2022/06/10 06:43:02;;;;;;;;;;;;;;;26.15;52.43;98936.00;4499519;31;34207;-83
2022/06/10 06:45:30;;;;;;;;;;;;;;;26.13;52.06;98937.88;4499871;31;34311;-85
2022/06/10 06:48:02;;;;;;;;;;;;;;;25.90;51.84;98944.44;4491520;31;33903;-81
2022/06/10 06:50:30;;;;;;;;;;;;;;;26.23;52.05;98942.72;4507678;31;33608;-81
2022/06/10 06:52:57;;;;;;;;;;;;;;;27.23;49.52;98945.94;4501123;31;33501;-85
2022/06/10 06:55:32;;;;;;;;;;;;;;;26.72;51.50;98940.00;4508435;31;34001;-82
2022/06/10 06:57:59;;;;;;;;;;;;;;;25.60;53.37;98946.88;4484114;31;34398;-85
2022/06/10 07:00:27;;;;;;;;;;;;;;;25.79;54.08;98944.16;4510848;31;34229;-82
2022/06/10 07:02:55;;;;;;;;;;;;;;;26.01;53.06;98943.88;4501554;31;33147;-83
2022/06/10 07:05:22;;;;;;;;;;;;;;;26.22;53.23;98943.66;4514907;31;33757;-86
2022/06/10 07:07:49;;;;;;;;;;;;;;;26.60;51.92;98946.88;4499256;31;33838;-86
2022/06/10 07:10:17;;;;;;;;;;;;;;;26.86;50.55;98938.28;4501809;31;33608;-82
2022/06/10 07:12:45;;;;;;;;;;;;;;;27.93;48.01;98947.03;4512641;31;31913;-82
2022/06/10 07:15:12;;;;;;;;;;;;;;;26.76;51.52;98946.84;4515036;31;33690;-84
2022/06/10 07:17:39;;;;;;;;;;;;;;;26.35;51.68;98948.19;4496910;31;34414;-82
2022/06/10 07:20:07;;;;;;;;;;;;;;;27.45;49.26;98951.69;4511397;31;34710;-84
2022/06/10 07:22:34;;;;;;;;;;;;;;;27.57;48.73;98950.94;4502903;31;33964;-83
2022/06/10 07:25:02;;;;;;;;;;;;;;;26.51;51.30;98950.88;4502572;31;35085;-83
2022/06/10 07:27:29;;;;;;;;;;;;;;;24.90;55.48;98947.78;4490904;31;34400;-83
2022/06/10 07:30:04;;;;;;;;;;;;;;;26.73;52.57;98958.50;4515699;31;34113;-82
2022/06/10 07:32:34;;;;;;;;;;;;;;;26.76;51.53;98952.19;4512809;31;34210;-84
2022/06/10 07:35:01;;;;;;;;;;;;;;;27.19;51.15;98955.88;4514193;31;34190;-83
2022/06/10 07:37:29;;;;;;;;;;;;;;;28.01;48.84;98952.72;4515293;31;34143;-82
2022/06/10 07:39:57;;;;;;;;;;;;;;;27.41;51.40;98951.00;4515303;31;33581;-81
2022/06/10 07:42:24;;;;;;;;;;;;;;;26.92;50.71;98953.00;4515621;31;33342;-83
2022/06/10 07:44:52;;;;;;;;;;;;;;;26.97;51.64;98950.94;4515218;31;34248;-85
2022/06/10 07:47:19;;;;;;;;;;;;;;;27.49;48.64;98947.88;4514908;31;34200;-84
2022/06/10 07:49:46;;;;;;;;;;;;;;;28.14;48.20;98952.81;4507168;31;34630;-85
2022/06/10 07:52:14;;;;;;;;;;;;;;;27.00;50.71;98956.06;4492362;31;33013;-85
2022/06/10 07:54:41;;;;;;;;;;;;;;;27.64;48.81;98946.09;4497722;31;34193;-85
2022/06/10 07:57:10;;;;;;;;;;;;;;;27.56;51.47;98961.69;4497880;31;34605;-83
2022/06/10 07:59:40;;;;;;;;;;;;;;;27.65;49.77;98951.38;4499048;31;33683;-88
2022/06/10 08:02:07;;;;;;;;;;;;;;;27.80;48.83;98957.56;4501157;31;33174;-86
2022/06/10 08:04:35;;;;;;;;;;;;;;;28.48;47.42;98956.03;4506489;31;34166;-85
2022/06/10 08:07:02;;;;;;;;;;;;;;;27.33;50.20;98965.75;4499916;31;35175;-85
2022/06/10 08:09:34;;;;;;;;;;;;;;;27.60;49.63;98960.56;4502477;31;34860;-82
2022/06/10 08:12:02;;;;;;;;;;;;;;;27.15;51.41;98967.66;4503760;31;33293;-82
2022/06/10 08:14:29;;;;;;;;;;;;;;;27.58;48.45;98973.97;4498490;31;34093;-86
2022/06/10 08:16:56;;;;;;;;;;;;;;;26.19;51.22;98979.22;4499062;31;34400;-83
2022/06/10 08:19:24;;;;;;;;;;;;;;;27.51;48.72;98974.44;4498828;31;33958;-84
2022/06/10 08:24:37;;;;;;;;;;;;;;;29.00;46.07;98972.22;4505513;31;34999;-83
2022/06/10 08:27:05;;;;;;;;;;;;;;;28.03;46.88;98980.13;4502964;31;34375;-87
2022/06/10 08:29:33;;;;;;;;;;;;;;;28.29;47.00;98980.31;4514749;31;34234;-83
2022/06/10 08:32:00;;;;;;;;;;;;;;;26.85;49.87;98975.56;4514815;31;33510;-85
2022/06/10 08:34:27;;;;;;;;;;;;;;;27.41;48.97;98976.78;4514941;31;34278;-87
2022/06/10 08:36:54;;;;;;;;;;;;;;;27.12;49.92;98978.47;4503353;31;34180;-87
2022/06/10 08:39:22;;;;;;;;;;;;;;;27.24;49.63;98984.88;4498204;31;34325;-87
2022/06/10 08:42:08;;;;;;;;;;;;;;;27.48;49.44;98988.78;4497421;31;33338;-85
2022/06/10 08:44:51;;;;;;;;;;;;;;;27.16;50.31;98982.69;4498337;31;34220;-85
2022/06/10 08:47:28;;;;;;;;;;;;;;;27.62;49.73;98983.50;4481510;32;34505;-86
2022/06/10 08:50:14;;;;;;;;;;;;;;;26.52;51.79;98994.28;4482809;32;34346;-85
2022/06/10 08:52:41;;;;;;;;;;;;;;;27.28;49.37;98987.31;4491755;31;33563;-86
2022/06/10 08:55:30;;;;;;;;;;;;;;;27.07;50.56;98986.69;4500102;31;34091;-84
2022/06/10 08:57:58;;;;;;;;;;;;;;;26.43;51.87;98991.16;4512919;31;34324;-85
2022/06/10 09:00:33;;;;;;;;;;;;;;;26.77;50.75;98993.78;4512999;31;34156;-88
2022/06/10 09:03:12;;;;;;;;;;;;;;;26.14;52.69;98998.06;4501165;31;33373;-86
2022/06/10 09:05:45;;;;;;;;;;;;;;;26.61;51.64;98997.28;4507466;31;33880;-83
2022/06/10 09:08:17;;;;;;;;;;;;;;;27.19;50.24;99002.94;4512933;31;34041;-86
2022/06/10 09:10:51;;;;;;;;;;;;;;;26.83;51.90;99002.28;4505275;31;34015;-86
2022/06/10 09:13:25;;;;;;;;;;;;;;;26.39;53.22;99010.03;4494917;31;34009;-84
2022/06/10 09:15:54;;;;;;;;;;;;;;;26.34;52.88;99012.06;4510519;31;33926;-84
2022/06/10 09:18:42;;;;;;;;;;;;;;;26.92;51.68;98996.41;4512959;31;33758;-84
2022/06/10 09:21:17;;;;;;;;;;;;;;;26.97;52.70;99001.47;4481778;31;34644;-84
2022/06/10 09:23:45;;;;;;;;;;;;;;;27.93;49.40;99005.66;4500533;31;34282;-85
2022/06/10 09:26:17;;;;;;;;;;;;;;;27.33;51.33;98998.53;4482180;32;33990;-85
2022/06/10 09:28:46;;;;;;;;;;;;;;;27.75;52.00;98996.97;4486577;31;34200;-83
2022/06/10 09:31:20;;;;;;;;;;;;;;;28.14;49.48;98996.31;4500573;31;34403;-84
2022/06/10 09:33:59;;;;;;;;;;;;;;;27.86;52.02;98988.31;4507029;31;33088;-82
2022/06/10 09:36:40;;;;;;;;;;;;;;;28.11;50.71;99001.84;4496794;31;34128;-82
2022/06/10 09:42:35;;;;;;;;;;;;;;;28.76;48.92;98989.81;4497699;31;33818;-82
2022/06/10 09:45:06;;;;;;;;;;;;;;;28.44;49.63;98999.88;4472519;31;34017;-83
2022/06/10 09:47:37;;;;;;;;;;;;;;;28.50;49.12;98997.66;4487435;31;34898;-83
2022/06/10 09:50:13;;;;;;;;;;;;;;;27.64;50.80;98996.72;4496512;31;34442;-83
2022/06/10 09:52:51;;;;;;;;;;;;;;;27.99;51.28;98994.59;4496582;31;35109;-82
2022/06/10 09:55:31;;;;;;;;;;;;;;;28.71;50.66;98998.09;4495351;31;33330;-84
2022/06/10 09:57:58;;;;;;;;;;;;;;;28.82;48.40;99002.75;4501940;31;33701;-84
2022/06/10 10:00:52;;;;;;;;;;;;;;;28.22;49.92;98994.97;4506302;31;34413;-86
2022/06/10 10:03:19;;;;;;;;;;;;;;;28.19;49.41;99000.53;4486647;31;34064;-84
2022/06/10 10:06:19;;;;;;;;;;;;;;;29.31;46.36;99002.22;4509671;31;33357;-86
2022/06/10 10:08:52;;;;;;;;;;;;;;;28.24;49.32;98998.44;4467141;31;33938;-84
2022/06/10 10:11:22;;;;;;;;;;;;;;;28.55;50.88;99002.72;4499720;31;35195;-84
2022/06/10 10:13:53;;;;;;;;;;;;;;;29.57;45.50;99003.13;4510041;31;34265;-86
2022/06/10 10:16:35;;;;;;;;;;;;;;;27.95;48.11;99003.72;4515240;31;33560;-86
2022/06/10 10:19:11;;;;;;;;;;;;;;;28.14;48.66;98998.12;4513979;31;34867;-85
2022/06/10 10:22:14;;;;;;;;;;;;;;;28.95;46.89;99006.34;4514030;31;34222;-86
2022/06/10 10:24:42;;;;;;;;;;;;;;;28.97;46.86;99008.91;4432749;32;33945;-81
2022/06/10 10:27:11;;;;;;;;;;;;;;;28.42;46.92;99010.63;4474347;31;32585;-81
2022/06/10 10:29:42;;;;;;;;;;;;;;;28.44;48.42;99011.38;4497834;31;34080;-81
2022/06/10 10:32:11;;;;;;;;;;;;;;;29.11;47.31;99016.03;4484148;31;34454;-80
2022/06/10 10:34:41;;;;;;;;;;;;;;;29.31;47.44;99002.22;4469075;32;33858;-81
2022/06/10 10:37:29;;;;;;;;;;;;;;;29.27;46.50;99004.22;4483598;32;33437;-81
2022/06/10 10:40:21;;;;;;;;;;;;;;;28.85;48.65;99007.88;4483052;32;34818;-81
2022/06/10 10:42:49;;;;;;;;;;;;;;;29.19;48.76;99009.22;4486732;31;34351;-81
2022/06/10 10:45:17;;;;;;;;;;;;;;;30.16;46.92;99011.56;4497844;31;35138;-82
2022/06/10 10:47:54;;;;;;;;;;;;;;;29.71;46.75;99012.91;4499263;31;34144;-81
2022/06/10 10:50:29;;;;;;;;;;;;;;;29.12;48.30;99001.72;4497273;31;34885;-81
2022/06/10 10:52:58;;;;;;;;;;;;;;;29.03;47.03;99011.22;4497945;31;34197;-83
2022/06/10 10:55:36;;;;;;;;;;;;;;;29.73;47.96;99009.16;4497512;31;34080;-83
2022/06/10 10:58:18;;;;;;;;;;;;;;;29.73;47.99;99011.84;4497782;31;33358;-84
2022/06/10 11:00:47;;;;;;;;;;;;;;;29.28;47.13;99007.75;4497564;31;34006;-83
2022/06/10 11:03:26;;;;;;;;;;;;;;;29.53;47.75;99013.16;4497081;31;34896;-84
2022/06/10 11:05:54;;;;;;;;;;;;;;;30.18;45.22;99006.97;4499629;31;34948;-83
2022/06/10 11:08:25;;;;;;;;;;;;;;;28.80;47.84;99004.66;4498172;31;33243;-84
2022/06/10 11:10:58;;;;;;;;;;;;;;;29.22;48.86;99000.16;4499915;31;33554;-83
2022/06/10 11:13:52;;;;;;;;;;;;;;;29.86;45.42;99003.84;4499381;31;34380;-84
2022/06/10 11:16:23;;;;;;;;;;;;;;;28.70;47.35;99001.72;4497406;31;35093;-84
2022/06/10 11:18:51;;;;;;;;;;;;;;;28.07;49.29;99016.31;4499424;31;34131;-85
2022/06/10 11:21:19;;;;;;;;;;;;;;;28.46;47.86;99013.97;4498395;31;34255;-85
2022/06/10 11:23:51;;;;;;;;;;;;;;;28.40;48.12;99001.87;4497965;31;35287;-84
2022/06/10 11:26:20;;;;;;;;;;;;;;;28.94;48.25;98998.41;4499369;31;34223;-83
2022/06/10 11:28:49;;;;;;;;;;;;;;;28.97;48.13;98999.06;4499507;31;33900;-84
2022/06/10 11:31:20;;;;;;;;;;;;;;;28.85;46.46;98995.41;4499252;31;34028;-84
2022/06/10 11:33:49;;;;;;;;;;;;;;;28.93;46.94;98992.22;4498191;31;35070;-82
2022/06/10 11:36:27;;;;;;;;;;;;;;;29.81;45.68;98989.94;4498592;31;34587;-83
2022/06/10 11:39:14;;;;;;;;;;;;;;;29.01;45.27;98989.94;4497652;31;33165;-88
2022/06/10 11:41:41;;;;;;;;;;;;;;;28.67;46.67;98985.06;4489019;31;34571;-85
2022/06/10 11:44:12;;;;;;;;;;;;;;;29.48;46.38;98991.25;4483449;32;35206;-84
2022/06/10 11:46:42;;;;;;;;;;;;;;;29.40;46.66;98992.72;4489318;31;34753;-87
2022/06/10 11:49:28;;;;;;;;;;;;;;;29.93;44.38;98988.22;4499551;31;33441;-85
2022/06/10 11:51:57;;;;;;;;;;;;;;;28.99;47.30;98989.19;4497886;31;34879;-83
2022/06/10 11:54:26;;;;;;;;;;;;;;;29.78;45.16;98984.81;4498950;31;34487;-87
2022/06/10 12:00:03;;;;;;;;;;;;;;;29.06;46.18;98987.84;4513905;31;33467;-86
2022/06/10 12:02:47;;;;;;;;;;;;;;;29.08;46.19;98980.56;4513800;31;33912;-84
2022/06/10 12:05:18;;;;;;;;;;;;;;;28.89;47.19;98968.50;4512411;31;35192;-84
2022/06/10 12:08:04;;;;;;;;;;;;;;;29.00;47.41;98968.69;4506325;31;34994;-85
2022/06/10 12:10:37;;;;;;;;;;;;;;;29.19;46.04;98969.19;4515045;31;33952;-83
2022/06/10 12:13:04;;;;;;;;;;;;;;;29.79;45.84;98965.16;4515000;31;34249;-84
2022/06/10 12:15:34;;;;;;;;;;;;;;;29.54;45.76;98972.13;4510221;31;34269;-84
2022/06/10 12:18:06;;;;;;;;;;;;;;;29.68;44.92;98957.87;4497057;31;34832;-83
2022/06/10 12:20:42;;;;;;;;;;;;;;;29.82;43.97;98948.91;4482355;31;33273;-84
2022/06/10 12:23:13;;;;;;;;;;;;;;;29.93;43.38;98951.69;4481938;32;34151;-83
2022/06/10 12:25:49;;;;;;;;;;;;;;;30.47;45.27;98940.69;4486557;31;33815;-84
2022/06/10 12:28:34;;;;;;;;;;;;;;;29.67;44.43;98936.63;4513520;31;33541;-84
2022/06/10 12:31:04;;;;;;;;;;;;;;;29.75;44.24;98934.25;4488392;31;33033;-84
2022/06/10 12:33:37;;;;;;;;;;;;;;;29.38;44.69;98939.44;4500934;31;34542;-85
2022/06/10 12:36:06;;;;;;;;;;;;;;;30.23;43.48;98932.63;4514674;31;35194;-84
2022/06/10 12:38:35;;;;;;;;;;;;;;;29.64;43.34;98928.81;4514685;31;34617;-86
2022/06/10 12:41:07;;;;;;;;;;;;;;;29.78;42.97;98926.87;4511602;31;34280;-84
2022/06/10 12:43:38;;;;;;;;;;;;;;;29.37;43.96;98936.88;4498794;31;34910;-84
2022/06/10 12:46:07;;;;;;;;;;;;;;;30.05;42.33;98924.06;4497345;31;34412;-85
2022/06/10 12:48:41;;;;;;;;;;;;;;;30.75;40.77;98922.62;4497214;31;34231;-85
2022/06/10 12:51:11;;;;;;;;;;;;;;;29.63;42.79;98919.94;4502026;31;34155;-83
2022/06/10 12:53:54;;;;;;;;;;;;;;;30.15;41.63;98934.09;4513943;31;34064;-82
2022/06/10 12:56:31;;;;;;;;;;;;;;;29.86;42.98;98926.34;4514543;31;34416;-83
2022/06/10 12:59:05;;;;;;;;;;;;;;;30.27;43.73;98919.91;4495176;31;34723;-83
2022/06/10 13:01:32;;;;;;;;;;;;;;;30.10;42.51;98936.25;4514434;31;34055;-85
2022/06/10 13:04:02;;;;;;;;;;;;;;;30.07;42.36;98937.31;4509911;31;34358;-84
2022/06/10 13:06:32;;;;;;;;;;;;;;;29.91;44.59;98937.56;4495735;31;35144;-83
2022/06/10 13:09:18;;;;;;;;;;;;;;;29.99;42.43;98935.19;4482654;32;34191;-84
2022/06/10 13:11:46;;;;;;;;;;;;;;;29.68;42.40;98946.31;4505586;31;34226;-84
2022/06/10 13:14:16;;;;;;;;;;;;;;;29.98;42.78;98944.19;4506785;31;34282;-83
2022/06/10 13:16:48;;;;;;;;;;;;;;;30.28;41.76;98957.22;4497853;31;34524;-82
2022/06/10 13:19:36;;;;;;;;;;;;;;;30.16;41.38;98952.75;4484167;31;34404;-82
2022/06/10 13:22:18;;;;;;;;;;;;;;;29.72;42.67;98947.81;4481065;32;33204;-83
2022/06/10 13:24:52;;;;;;;;;;;;;;;30.07;40.83;98948.00;4502093;31;35036;-85
2022/06/10 13:27:26;;;;;;;;;;;;;;;30.23;42.05;98948.69;4507475;31;35331;-81
2022/06/10 13:29:57;;;;;;;;;;;;;;;29.51;42.77;98944.78;4496624;31;35043;-82